map of CLY home
CLY - Airport
Location
City:  Calvi, Corse (Corsica), France
Name:Ste-Catherine
ICAO:LFKC
IATA:CLY

Details
Type:Airport (Aerodrome, Airfield)
Use:Public/Civil
Latitude:4231'13"N (42.520364)
Longitude:847'35"E (8.793028)
Elevation:209 ft (64 m)
Variation:2.46E (WMM2015 magnetic declination)
0.11 annual change
Runways:1
Longest:7579 × 131 ft (2310 × 40 m)

Time
Time Zone:UTC+1 (DST+2)
Local Time:

Weather
METAR:LFKC 182000Z AUTO 18005KT 140V210 CAVOK 03/M01 Q1012
TAF:LFKC 181900Z 1819/1915 CNL= TAF LFOH 181900Z 1819/1912 CNL

Related Locations
Nearby:
Farthest:CHT: 12160 mi / 19570 km
Waitangi [Tuuta], CIT, NZ

Find:

   beyond  
but within

Other Information
Maps:
NOTAMs:
Links:
Sources:

  
  • flag of France
  • flag of Corse (Corsica)
  

Sectional Chart

Flight Planning
at skyvector.com

Satellite Image

Google Maps Satellite view

 

Copyright © 2004-2019 Karl L. Swartz. All rights reserved.
The Great Circle Mapper name and logo are trademarks of the Great Circle Mapper.
All other trademarks mentioned herein belong to their respective owners.
Please see credits for attibutions and further copyright information.

  Follow gcmap on Facebook Follow gcmap on Twitter Follow gcmap on Google+ GCmap on LinkedIn

hCard Microformat

Geo Microformat